This is the latest recevied weather packets stored in our database for station/object XE2CT-20. If no packets are shown the sender has not sent any weather packets the latest 1 day(s).
| Time | Temp. | Humidity | Pressure | Rain* | Wind** | Luminosity | Snow |
|---|---|---|---|---|---|---|---|
| 1778103093 | 37.22° C | 34% | 997 hPa | - | - | - | - |
| 1778102192 | 36.11° C | 39% | 1000 hPa | - | - | - | - |
| 1778101291 | 35° C | 40% | 1001 hPa | - | - | - | - |
| 1778100390 | 35° C | 41% | 1001 hPa | - | - | - | - |
| 1778099489 | 36.67° C | 39% | 1000 hPa | - | - | - | - |
| 1778089577 | 31.67° C | 56% | 1008 hPa | - | - | - | - |
| 1778088676 | 31.11° C | 57% | 1009 hPa | - | - | - | - |
| 1778087775 | 31.11° C | 58% | 1009 hPa | - | - | - | - |
| 1778086874 | 30.56° C | 59% | 1010 hPa | - | - | - | - |
| 1778085973 | 30° C | 60% | 1011 hPa | - | - | - | - |
| 1778085072 | 30.56° C | 59% | 1010 hPa | - | - | - | - |
| 1778084171 | 30° C | 60% | 1011 hPa | - | - | - | - |
| 1778083270 | 29.44° C | 62% | 1012 hPa | - | - | - | - |
| 1778072457 | 27.78° C | 69% | 1013 hPa | - | - | - | - |
| 1778071556 | 27.78° C | 69% | 1013 hPa | - | - | - | - |
| 1778070655 | 27.22° C | 71% | 1014 hPa | - | - | - | - |
| 1778069754 | 27.22° C | 70% | 1013 hPa | - | - | - | - |
| 1778068853 | 27.22° C | 70% | 1013 hPa | - | - | - | - |
| 1778067952 | 27.22° C | 72% | 1014 hPa | - | - | - | - |
| 1778067051 | 27.22° C | 73% | 1014 hPa | - | - | - | - |
| 1778058940 | 27.78° C | 68% | 1013 hPa | - | - | - | - |
| 1778057138 | 28.33° C | 68% | 1013 hPa | - | - | - | - |
| 1778056238 | 28.33° C | 67% | 1013 hPa | - | - | - | - |
| 1778055336 | 28.33° C | 65% | 1012 hPa | - | - | - | - |
| 1778054435 | 28.33° C | 67% | 1013 hPa | - | - | - | - |
* Rain since midnight (hover to see other rain measurements)
** Current wind speed in m/s (hover to see current wind gust speed)